createdAt,value
2019-02-17T00:02:56.734Z,6.90
2019-02-17T00:06:01.743Z,7.37
2019-02-17T00:09:11.484Z,7.80
2019-02-17T00:12:16.349Z,9.37
2019-02-17T00:15:21.412Z,6.60
2019-02-17T00:18:26.429Z,7.90
2019-02-17T00:21:31.426Z,9.70
2019-02-17T00:24:36.371Z,6.70
2019-02-17T00:27:41.238Z,7.20
2019-02-17T00:30:46.142Z,6.63
2019-02-17T00:33:51.228Z,7.80
2019-02-17T00:36:56.260Z,7.40
2019-02-17T00:40:01.237Z,7.40
2019-02-17T00:43:06.250Z,7.93
2019-02-17T00:46:11.405Z,8.30
2019-02-17T00:49:16.696Z,8.23
2019-02-17T00:52:21.633Z,8.10
2019-02-17T00:55:26.744Z,8.47
2019-02-17T00:58:32.110Z,7.97
2019-02-17T01:01:37.049Z,7.30
2019-02-17T01:04:42.188Z,9.53
2019-02-17T01:07:47.124Z,7.43
2019-02-17T01:10:51.987Z,7.63
2019-02-17T01:13:56.895Z,7.20
2019-02-17T01:17:01.869Z,7.57
2019-02-17T01:20:06.888Z,7.00
2019-02-17T01:23:12.014Z,6.87
2019-02-17T01:26:17.141Z,7.03
2019-02-17T01:29:22.045Z,6.57
2019-02-17T01:32:26.926Z,7.30
2019-02-17T01:35:31.992Z,6.97
2019-02-17T01:38:37.073Z,7.40
2019-02-17T01:41:42.071Z,6.00
2019-02-17T01:44:47.165Z,6.63
2019-02-17T01:47:52.131Z,8.17
2019-02-17T01:50:57.261Z,6.70
2019-02-17T01:54:02.174Z,7.13
2019-02-17T01:57:07.076Z,8.50
2019-02-17T02:00:13.169Z,7.90
2019-02-17T02:03:18.146Z,6.40
2019-02-17T02:06:23.299Z,6.10
2019-02-17T02:09:28.513Z,6.30
2019-02-17T02:12:35.008Z,5.90
2019-02-17T02:15:40.180Z,6.60
2019-02-17T02:18:45.164Z,7.07
2019-02-17T02:21:50.209Z,6.57
2019-02-17T02:24:55.264Z,6.10
2019-02-17T02:28:00.380Z,6.33
2019-02-17T02:31:05.379Z,6.37
2019-02-17T02:34:10.436Z,5.70
2019-02-17T02:37:15.405Z,8.27
2019-02-17T02:40:20.277Z,6.50
2019-02-17T02:43:25.172Z,5.77
2019-02-17T02:46:30.118Z,5.77
2019-02-17T02:49:35.380Z,6.00
2019-02-17T02:52:40.216Z,6.13
2019-02-17T02:55:45.180Z,6.77
2019-02-17T02:58:50.197Z,5.40
2019-02-17T03:01:55.324Z,5.10
2019-02-17T03:05:00.463Z,6.30
2019-02-17T03:08:05.320Z,6.13
2019-02-17T03:11:10.234Z,5.27
2019-02-17T03:14:15.169Z,6.07
2019-02-17T03:17:20.181Z,6.20
2019-02-17T03:20:25.125Z,4.77
2019-02-17T03:23:30.046Z,6.57
2019-02-17T03:26:35.209Z,6.90
2019-02-17T03:29:40.147Z,5.00
2019-02-17T03:32:45.295Z,5.10
2019-02-17T03:35:50.216Z,5.70
2019-02-17T03:38:55.079Z,6.10
2019-02-17T03:42:00.005Z,6.10
2019-02-17T03:45:05.254Z,5.47
2019-02-17T03:48:10.355Z,6.13
2019-02-17T03:51:15.339Z,5.83
2019-02-17T03:54:20.174Z,5.17
2019-02-17T03:57:25.126Z,4.93
2019-02-17T04:00:30.129Z,5.57
2019-02-17T04:03:35.265Z,6.40
2019-02-17T04:06:40.193Z,5.77
2019-02-17T04:09:45.226Z,6.63
2019-02-17T04:12:50.374Z,7.83
2019-02-17T04:15:55.334Z,6.30
2019-02-17T04:19:00.461Z,5.83
2019-02-17T04:22:05.432Z,5.80
2019-02-17T04:25:10.347Z,5.80
2019-02-17T04:28:15.481Z,6.77
2019-02-17T04:31:20.427Z,5.73
2019-02-17T04:34:26.070Z,6.37
2019-02-17T04:37:31.194Z,6.30
2019-02-17T04:40:36.157Z,5.67
2019-02-17T04:43:41.274Z,6.80
2019-02-17T04:46:46.480Z,5.30
2019-02-17T04:49:51.576Z,5.33
2019-02-17T04:52:56.524Z,5.00
2019-02-17T04:56:01.487Z,5.00
2019-02-17T04:59:06.593Z,5.00
2019-02-17T05:02:11.536Z,4.80
2019-02-17T05:05:16.683Z,5.27
2019-02-17T05:08:21.776Z,5.90
2019-02-17T05:11:26.749Z,4.83
2019-02-17T05:14:31.860Z,5.50
2019-02-17T05:17:36.834Z,4.90
2019-02-17T05:20:41.674Z,5.83
2019-02-17T05:23:46.640Z,5.60
2019-02-17T05:26:51.520Z,5.17
2019-02-17T05:29:56.574Z,5.40
2019-02-17T05:33:01.689Z,5.10
2019-02-17T05:36:06.693Z,4.60
2019-02-17T05:39:11.778Z,5.70
2019-02-17T05:42:16.751Z,5.80
2019-02-17T05:45:21.865Z,5.50
2019-02-17T05:48:29.287Z,5.17
2019-02-17T05:51:33.600Z,6.10
2019-02-17T05:54:38.510Z,5.30
2019-02-17T05:57:43.371Z,6.40
2019-02-17T06:00:48.404Z,5.80
2019-02-17T06:03:53.533Z,6.00
2019-02-17T06:06:58.553Z,6.17
2019-02-17T06:10:03.677Z,6.57
2019-02-17T06:13:08.637Z,5.97
2019-02-17T06:16:13.883Z,7.90
2019-02-17T06:19:18.958Z,9.23
2019-02-17T06:22:24.152Z,7.43
2019-02-17T06:25:29.133Z,6.17
2019-02-17T06:28:34.002Z,6.03
2019-02-17T06:31:38.993Z,6.70
2019-02-17T06:34:44.146Z,7.97
2019-02-17T06:37:49.106Z,5.67
2019-02-17T06:40:54.225Z,6.50
2019-02-17T06:43:59.247Z,6.30
2019-02-17T06:47:05.982Z,7.80
2019-02-17T06:50:11.449Z,6.57
2019-02-17T06:53:16.434Z,7.10
2019-02-17T06:56:40.533Z,6.90
2019-02-17T06:59:45.738Z,10.13
2019-02-17T07:02:50.768Z,5.43
2019-02-17T07:06:13.672Z,6.80
2019-02-17T07:09:18.606Z,6.50
2019-02-17T07:12:23.749Z,8.60
2019-02-17T07:15:28.640Z,7.00
2019-02-17T07:18:33.832Z,6.90
2019-02-17T07:21:38.717Z,8.03
2019-02-17T07:24:43.873Z,7.80
2019-02-17T07:27:48.826Z,8.53
2019-02-17T07:30:53.956Z,8.77
2019-02-17T07:33:58.806Z,8.10
2019-02-17T07:37:03.742Z,9.20
2019-02-17T07:40:08.854Z,8.03
2019-02-17T07:43:13.862Z,9.70
2019-02-17T07:46:18.945Z,8.90
2019-02-17T07:49:24.201Z,8.80
2019-02-17T07:52:29.109Z,8.83
2019-02-17T07:55:33.986Z,9.60
2019-02-17T07:58:38.889Z,9.67
2019-02-17T08:01:45.624Z,9.37
2019-02-17T08:04:50.902Z,10.50
2019-02-17T08:07:55.861Z,10.37
2019-02-17T08:11:04.078Z,10.27
2019-02-17T08:14:07.776Z,8.40
2019-02-17T08:17:12.721Z,9.10
2019-02-17T08:20:17.574Z,8.70
2019-02-17T08:23:22.792Z,9.90
2019-02-17T08:26:27.750Z,11.03
2019-02-17T08:29:32.848Z,10.30
2019-02-17T08:32:37.840Z,10.47
2019-02-17T08:35:42.733Z,10.50
2019-02-17T08:38:47.620Z,10.83
2019-02-17T08:41:52.794Z,10.23
2019-02-17T08:44:57.877Z,9.80
2019-02-17T08:48:03.108Z,9.80
2019-02-17T08:51:08.057Z,10.40
2019-02-17T08:54:13.151Z,10.57
2019-02-17T08:57:18.157Z,10.73
2019-02-17T09:00:26.299Z,12.20
2019-02-17T09:03:31.277Z,9.60
2019-02-17T09:06:36.151Z,9.87
2019-02-17T09:09:41.114Z,10.30
2019-02-17T09:12:46.260Z,10.37
2019-02-17T09:15:51.233Z,12.20
2019-02-17T09:18:56.343Z,13.03
2019-02-17T09:22:01.364Z,15.40
2019-02-17T09:25:07.048Z,12.50
2019-02-17T09:28:12.028Z,13.63
2019-02-17T09:31:16.958Z,12.00
2019-02-17T09:34:22.116Z,14.57
2019-02-17T09:37:27.384Z,13.53
2019-02-17T09:40:32.363Z,13.47
2019-02-17T09:43:37.343Z,15.77
2019-02-17T09:46:42.358Z,16.43
2019-02-17T09:49:47.290Z,13.70
2019-02-17T09:52:52.520Z,13.33
2019-02-17T09:55:58.154Z,14.53
2019-02-17T09:59:03.197Z,13.07
2019-02-17T10:02:08.405Z,13.17
2019-02-17T10:05:13.996Z,13.97
2019-02-17T10:08:19.262Z,14.30
2019-02-17T10:11:24.423Z,12.80
2019-02-17T10:14:29.491Z,13.35
2019-02-17T10:17:34.740Z,12.03
2019-02-17T10:20:39.810Z,13.33
2019-02-17T10:23:44.923Z,12.00
2019-02-17T10:26:50.341Z,11.63
2019-02-17T10:29:57.126Z,11.78
2019-02-17T10:33:02.329Z,10.88
2019-02-17T10:36:07.528Z,9.83
2019-02-17T10:39:12.537Z,9.85
2019-02-17T10:42:17.643Z,10.68
2019-02-17T10:45:22.520Z,8.83
2019-02-17T10:48:27.443Z,9.08
2019-02-17T10:51:32.402Z,8.98
2019-02-17T10:54:37.368Z,9.73
2019-02-17T10:57:42.312Z,8.25
2019-02-17T11:00:47.276Z,7.90
2019-02-17T11:04:11.369Z,7.28
2019-02-17T11:07:16.378Z,7.92
2019-02-17T11:10:21.529Z,7.62
2019-02-17T11:13:26.469Z,8.70
2019-02-17T11:16:31.605Z,7.95
2019-02-17T11:19:36.537Z,7.83
2019-02-17T11:22:41.716Z,7.83
2019-02-17T11:25:46.610Z,8.15
2019-02-17T11:28:51.585Z,7.17
2019-02-17T11:31:56.597Z,9.75
2019-02-17T11:35:01.640Z,7.45
2019-02-17T11:38:06.469Z,7.65
2019-02-17T11:41:12.674Z,7.45
2019-02-17T11:44:17.680Z,7.05
2019-02-17T11:47:22.797Z,7.20
2019-02-17T11:50:28.356Z,6.96
2019-02-17T11:53:33.653Z,7.10
2019-02-17T11:56:38.653Z,6.53
2019-02-17T11:59:44.038Z,7.10
2019-02-17T12:02:48.849Z,6.65
2019-02-17T12:05:53.800Z,6.97
2019-02-17T12:08:58.720Z,6.47
2019-02-17T12:12:03.688Z,6.50
2019-02-17T12:15:09.688Z,6.92
2019-02-17T12:18:14.583Z,6.58
2019-02-17T12:21:37.204Z,6.15
2019-02-17T12:24:52.678Z,7.05
2019-02-17T12:28:07.752Z,5.15
2019-02-17T12:31:17.686Z,6.62
2019-02-17T12:34:22.682Z,7.05
2019-02-17T12:37:27.714Z,5.60
2019-02-17T12:40:32.797Z,7.37
2019-02-17T12:43:37.881Z,7.20
2019-02-17T12:46:42.893Z,6.92
2019-02-17T12:49:47.869Z,6.53
2019-02-17T12:52:52.915Z,6.40
2019-02-17T12:55:57.888Z,6.10
2019-02-17T12:59:02.852Z,6.05
2019-02-17T13:02:07.726Z,5.90
2019-02-17T13:05:13.105Z,5.80
2019-02-17T13:08:18.111Z,6.15
2019-02-17T13:11:22.977Z,6.37
2019-02-17T13:14:28.190Z,6.08
2019-02-17T13:17:33.126Z,5.25
2019-02-17T13:20:38.215Z,5.33
2019-02-17T13:23:43.106Z,5.97
2019-02-17T13:26:48.128Z,5.30
2019-02-17T13:29:53.207Z,5.62
2019-02-17T13:32:58.294Z,5.40
2019-02-17T13:36:03.333Z,5.42
2019-02-17T13:39:08.456Z,4.83
2019-02-17T13:42:13.648Z,8.90
2019-02-17T13:45:18.694Z,4.60
2019-02-17T13:48:23.804Z,4.53
2019-02-17T13:51:28.767Z,4.65
2019-02-17T13:54:33.958Z,4.62
2019-02-17T13:57:38.942Z,4.67
2019-02-17T14:00:44.228Z,4.90
2019-02-17T14:03:49.402Z,4.67
2019-02-17T14:06:54.594Z,4.47
2019-02-17T14:09:59.662Z,4.08
2019-02-17T14:13:04.602Z,4.50
2019-02-17T14:16:09.490Z,4.43
2019-02-17T14:19:14.596Z,4.30
2019-02-17T14:22:19.822Z,3.80
2019-02-17T14:25:24.796Z,4.27
2019-02-17T14:28:29.942Z,4.70
2019-02-17T14:31:35.009Z,5.40
2019-02-17T14:34:39.946Z,3.93
2019-02-17T14:37:44.997Z,5.10
2019-02-17T14:40:50.255Z,4.30
2019-02-17T14:43:55.233Z,4.23
2019-02-17T14:47:00.257Z,4.10
2019-02-17T14:50:05.536Z,7.63
2019-02-17T14:53:10.555Z,5.07
2019-02-17T14:56:15.539Z,4.33
2019-02-17T14:59:20.400Z,9.63
2019-02-17T15:02:25.650Z,6.67
2019-02-17T15:05:30.594Z,7.40
2019-02-17T15:08:35.636Z,4.20
2019-02-17T15:11:40.674Z,3.90
2019-02-17T15:14:45.572Z,4.67
2019-02-17T15:17:50.513Z,4.60
2019-02-17T15:20:55.702Z,4.37
2019-02-17T15:24:00.627Z,7.07
2019-02-17T15:27:05.586Z,11.53
2019-02-17T15:30:12.121Z,7.30
2019-02-17T15:33:17.276Z,4.67
2019-02-17T15:36:22.093Z,4.03
2019-02-17T15:39:27.124Z,5.80
2019-02-17T15:42:32.068Z,4.50
2019-02-17T15:45:37.220Z,5.30
2019-02-17T15:48:42.114Z,4.37
2019-02-17T15:51:47.297Z,4.00
2019-02-17T15:54:52.145Z,4.30
2019-02-17T15:58:02.255Z,4.90
2019-02-17T16:01:07.205Z,5.77
2019-02-17T16:04:12.363Z,4.20
2019-02-17T16:07:17.465Z,3.90
2019-02-17T16:10:22.558Z,5.57
2019-02-17T16:13:27.604Z,5.00
2019-02-17T16:16:32.735Z,5.30
2019-02-17T16:19:38.071Z,6.37
2019-02-17T16:22:43.164Z,6.50
2019-02-17T16:25:48.153Z,7.83
2019-02-17T16:28:53.121Z,6.77
2019-02-17T16:31:57.988Z,5.77
2019-02-17T16:35:02.911Z,5.93
2019-02-17T16:38:07.916Z,5.50
2019-02-17T16:41:13.142Z,5.50
2019-02-17T16:44:18.363Z,5.43
2019-02-17T16:47:23.449Z,6.30
2019-02-17T16:50:28.490Z,4.43
2019-02-17T16:53:33.651Z,4.30
2019-02-17T16:56:38.920Z,4.60
2019-02-17T16:59:43.854Z,5.70
2019-02-17T17:02:48.887Z,5.33
2019-02-17T17:05:53.888Z,6.80
2019-02-17T17:09:17.787Z,5.00
2019-02-17T17:12:24.842Z,8.60
2019-02-17T17:15:29.857Z,5.73
2019-02-17T17:18:35.004Z,7.50
2019-02-17T17:21:40.160Z,6.53
2019-02-17T17:24:45.001Z,6.50
2019-02-17T17:27:49.924Z,8.43
2019-02-17T17:30:54.981Z,7.30
2019-02-17T17:34:00.235Z,7.00
2019-02-17T17:37:05.145Z,8.10
2019-02-17T17:40:11.380Z,8.13
2019-02-17T17:43:16.607Z,7.70
2019-02-17T17:46:21.767Z,9.27
2019-02-17T17:49:26.744Z,10.07
2019-02-17T17:52:31.752Z,9.90
2019-02-17T17:55:37.146Z,9.60
2019-02-17T17:58:42.249Z,8.40
2019-02-17T18:01:47.236Z,9.13
2019-02-17T18:04:52.190Z,10.00
2019-02-17T18:07:57.584Z,10.97
2019-02-17T18:11:02.810Z,8.70
2019-02-17T18:14:07.882Z,8.97
2019-02-17T18:17:13.001Z,9.27
2019-02-17T18:20:17.932Z,8.97
2019-02-17T18:23:22.936Z,7.97
2019-02-17T18:26:28.070Z,8.00
2019-02-17T18:29:33.167Z,9.40
2019-02-17T18:32:38.074Z,10.70
2019-02-17T18:35:43.096Z,8.50
2019-02-17T18:38:48.427Z,9.23
2019-02-17T18:41:53.947Z,8.83
2019-02-17T18:44:59.088Z,9.30
2019-02-17T18:48:04.259Z,9.43
2019-02-17T18:51:09.269Z,11.10
2019-02-17T18:54:14.490Z,9.90
2019-02-17T18:57:19.452Z,11.20
2019-02-17T19:00:24.492Z,9.83
2019-02-17T19:03:29.423Z,9.70
2019-02-17T19:06:34.415Z,9.00
2019-02-17T19:09:39.589Z,9.17
2019-02-17T19:12:44.939Z,8.60
2019-02-17T19:15:50.062Z,8.07
2019-02-17T19:18:55.132Z,8.30
2019-02-17T19:22:00.342Z,9.97
2019-02-17T19:25:05.465Z,9.63
2019-02-17T19:28:10.534Z,10.10
2019-02-17T19:31:15.817Z,8.57
2019-02-17T19:34:20.670Z,9.30
2019-02-17T19:37:25.595Z,9.33
2019-02-17T19:40:30.806Z,9.33
2019-02-17T19:43:35.861Z,10.00
2019-02-17T19:46:59.717Z,11.60
2019-02-17T19:50:04.745Z,9.37
2019-02-17T19:53:09.835Z,10.10
2019-02-17T19:56:14.939Z,9.90
2019-02-17T19:59:19.938Z,11.00
2019-02-17T20:02:40.552Z,10.80
2019-02-17T20:05:52.033Z,10.53
2019-02-17T20:08:55.297Z,9.67
2019-02-17T20:12:00.309Z,11.17
2019-02-17T20:15:05.381Z,11.00
2019-02-17T20:18:10.601Z,10.50
2019-02-17T20:21:15.763Z,11.40
2019-02-17T20:24:20.852Z,11.30
2019-02-17T20:27:25.989Z,11.70
2019-02-17T20:30:31.036Z,12.67
2019-02-17T20:33:36.085Z,11.43
2019-02-17T20:36:41.001Z,12.20
2019-02-17T20:39:47.312Z,10.17
2019-02-17T20:42:52.302Z,10.77
2019-02-17T20:45:57.422Z,12.07
2019-02-17T20:49:02.616Z,9.90
2019-02-17T20:52:10.557Z,11.63
2019-02-17T20:55:15.483Z,9.67
2019-02-17T20:58:20.483Z,10.73
2019-02-17T21:01:25.522Z,10.27
2019-02-17T21:04:30.549Z,10.33
2019-02-17T21:07:35.474Z,10.93
2019-02-17T21:10:40.581Z,10.80
2019-02-17T21:13:45.541Z,10.60
2019-02-17T21:16:50.564Z,10.47
2019-02-17T21:19:55.762Z,11.50
2019-02-17T21:23:01.030Z,10.87
2019-02-17T21:26:05.909Z,11.47
2019-02-17T21:29:10.952Z,11.10
2019-02-17T21:32:16.270Z,11.00
2019-02-17T21:35:21.430Z,12.00
2019-02-17T21:38:26.448Z,11.40
2019-02-17T21:41:31.669Z,11.97
2019-02-17T21:44:37.110Z,11.13
2019-02-17T21:47:43.175Z,12.43
2019-02-17T21:50:48.119Z,12.10
2019-02-17T21:53:53.256Z,12.17
2019-02-17T21:56:58.296Z,12.37
2019-02-17T22:00:03.538Z,12.00
2019-02-17T22:03:08.473Z,12.57
2019-02-17T22:06:13.609Z,11.20
2019-02-17T22:09:18.749Z,14.07
2019-02-17T22:12:23.772Z,12.97
2019-02-17T22:15:28.761Z,14.10
2019-02-17T22:18:33.734Z,12.90
2019-02-17T22:21:38.900Z,14.67
2019-02-17T22:24:43.973Z,12.30
2019-02-17T22:27:48.930Z,13.90
2019-02-17T22:30:54.367Z,14.43
2019-02-17T22:34:01.294Z,13.97
2019-02-17T22:37:06.482Z,14.40
2019-02-17T22:40:11.446Z,14.70
2019-02-17T22:43:16.384Z,16.50
2019-02-17T22:46:21.461Z,15.50
2019-02-17T22:49:26.645Z,15.33
2019-02-17T22:52:31.724Z,14.70
2019-02-17T22:55:36.712Z,16.20
2019-02-17T22:58:41.792Z,15.80
2019-02-17T23:01:46.908Z,15.90
2019-02-17T23:04:51.939Z,15.97
2019-02-17T23:07:57.210Z,14.67
2019-02-17T23:11:02.152Z,14.63
2019-02-17T23:14:07.455Z,13.40
2019-02-17T23:17:12.403Z,14.13
2019-02-17T23:20:17.537Z,13.63
2019-02-17T23:23:22.449Z,15.70
2019-02-17T23:26:27.311Z,15.50
2019-02-17T23:29:32.291Z,14.17
2019-02-17T23:32:37.456Z,16.23
2019-02-17T23:35:42.427Z,15.70
2019-02-17T23:38:47.552Z,14.53
2019-02-17T23:41:52.914Z,16.30
2019-02-17T23:44:57.714Z,16.83
2019-02-17T23:48:02.801Z,16.77
2019-02-17T23:51:08.108Z,16.93
2019-02-17T23:54:13.119Z,14.00
2019-02-17T23:57:18.099Z,16.23
